sensor_id;sensor_type;location;lat;lon;timestamp;P1;durP1;ratioP1;P2;durP2;ratioP2
21507;SDS011;10915;54.352;9.074;2023-01-10T00:00:34;39.53;;;9.37;;
21507;SDS011;10915;54.352;9.074;2023-01-10T00:03:05;37.97;;;10.13;;
21507;SDS011;10915;54.352;9.074;2023-01-10T00:05:32;38.17;;;8.17;;
21507;SDS011;10915;54.352;9.074;2023-01-10T00:07:58;34.27;;;9.07;;
21507;SDS011;10915;54.352;9.074;2023-01-10T00:10:26;36.37;;;9.20;;
21507;SDS011;10915;54.352;9.074;2023-01-10T00:12:52;40.17;;;8.53;;
21507;SDS011;10915;54.352;9.074;2023-01-10T00:15:37;39.93;;;8.77;;
21507;SDS011;10915;54.352;9.074;2023-01-10T00:18:02;38.43;;;8.23;;
21507;SDS011;10915;54.352;9.074;2023-01-10T00:20:28;44.50;;;8.67;;
21507;SDS011;10915;54.352;9.074;2023-01-10T00:22:54;28.60;;;8.03;;
21507;SDS011;10915;54.352;9.074;2023-01-10T00:25:20;36.97;;;9.77;;
21507;SDS011;10915;54.352;9.074;2023-01-10T00:27:46;35.17;;;8.57;;
21507;SDS011;10915;54.352;9.074;2023-01-10T00:30:25;36.03;;;8.83;;
21507;SDS011;10915;54.352;9.074;2023-01-10T00:32:52;35.03;;;9.17;;
21507;SDS011;10915;54.352;9.074;2023-01-10T00:35:17;38.47;;;9.07;;
21507;SDS011;10915;54.352;9.074;2023-01-10T00:37:44;38.93;;;8.47;;
21507;SDS011;10915;54.352;9.074;2023-01-10T00:40:10;38.30;;;8.93;;
21507;SDS011;10915;54.352;9.074;2023-01-10T00:42:37;42.80;;;9.87;;
21507;SDS011;10915;54.352;9.074;2023-01-10T00:45:26;35.30;;;8.43;;
21507;SDS011;10915;54.352;9.074;2023-01-10T00:47:52;30.07;;;8.77;;
21507;SDS011;10915;54.352;9.074;2023-01-10T00:50:17;27.77;;;7.37;;
21507;SDS011;10915;54.352;9.074;2023-01-10T00:52:43;25.07;;;6.50;;
21507;SDS011;10915;54.352;9.074;2023-01-10T00:55:09;32.33;;;8.00;;
21507;SDS011;10915;54.352;9.074;2023-01-10T00:57:35;29.43;;;8.17;;
21507;SDS011;10915;54.352;9.074;2023-01-10T01:00:00;29.13;;;8.30;;
21507;SDS011;10915;54.352;9.074;2023-01-10T01:02:26;31.63;;;8.63;;
21507;SDS011;10915;54.352;9.074;2023-01-10T01:04:52;28.03;;;8.73;;
21507;SDS011;10915;54.352;9.074;2023-01-10T01:07:17;34.53;;;8.13;;
21507;SDS011;10915;54.352;9.074;2023-01-10T01:09:43;38.77;;;9.37;;
21507;SDS011;10915;54.352;9.074;2023-01-10T01:12:27;24.30;;;6.70;;
21507;SDS011;10915;54.352;9.074;2023-01-10T01:14:53;22.60;;;6.53;;
21507;SDS011;10915;54.352;9.074;2023-01-10T01:17:18;21.57;;;6.13;;
21507;SDS011;10915;54.352;9.074;2023-01-10T01:23:16;18.00;;;5.47;;
21507;SDS011;10915;54.352;9.074;2023-01-10T01:25:42;23.57;;;5.30;;
21507;SDS011;10915;54.352;9.074;2023-01-10T01:28:08;20.60;;;5.20;;
21507;SDS011;10915;54.352;9.074;2023-01-10T01:30:38;23.83;;;5.10;;
21507;SDS011;10915;54.352;9.074;2023-01-10T01:33:04;22.70;;;5.43;;
21507;SDS011;10915;54.352;9.074;2023-01-10T01:35:29;24.30;;;4.93;;
21507;SDS011;10915;54.352;9.074;2023-01-10T01:37:57;20.80;;;5.10;;
21507;SDS011;10915;54.352;9.074;2023-01-10T01:40:23;18.27;;;4.67;;
21507;SDS011;10915;54.352;9.074;2023-01-10T01:42:48;20.10;;;4.30;;
21507;SDS011;10915;54.352;9.074;2023-01-10T01:52:59;24.53;;;5.07;;
21507;SDS011;10915;54.352;9.074;2023-01-10T01:55:31;19.20;;;4.23;;
21507;SDS011;10915;54.352;9.074;2023-01-10T01:57:59;21.37;;;4.20;;
21507;SDS011;10915;54.352;9.074;2023-01-10T02:00:30;23.40;;;4.17;;
21507;SDS011;10915;54.352;9.074;2023-01-10T02:02:56;20.03;;;4.03;;
21507;SDS011;10915;54.352;9.074;2023-01-10T02:05:23;23.73;;;4.23;;
21507;SDS011;10915;54.352;9.074;2023-01-10T02:07:51;18.07;;;4.10;;
21507;SDS011;10915;54.352;9.074;2023-01-10T02:10:25;20.77;;;3.80;;
21507;SDS011;10915;54.352;9.074;2023-01-10T02:12:54;22.60;;;3.43;;
21507;SDS011;10915;54.352;9.074;2023-01-10T02:15:24;17.70;;;3.60;;
21507;SDS011;10915;54.352;9.074;2023-01-10T02:17:50;20.87;;;4.00;;
21507;SDS011;10915;54.352;9.074;2023-01-10T02:20:17;21.93;;;3.17;;
21507;SDS011;10915;54.352;9.074;2023-01-10T02:37:10;26.27;;;4.10;;
21507;SDS011;10915;54.352;9.074;2023-01-10T02:42:33;28.63;;;4.97;;
21507;SDS011;10915;54.352;9.074;2023-01-10T02:47:51;17.97;;;3.90;;
21507;SDS011;10915;54.352;9.074;2023-01-10T02:53:03;22.90;;;4.83;;
21507;SDS011;10915;54.352;9.074;2023-01-10T02:58:52;31.47;;;4.27;;
21507;SDS011;10915;54.352;9.074;2023-01-10T03:04:31;27.60;;;4.80;;
21507;SDS011;10915;54.352;9.074;2023-01-10T03:07:25;28.90;;;4.43;;
21507;SDS011;10915;54.352;9.074;2023-01-10T03:10:09;23.97;;;4.13;;
21507;SDS011;10915;54.352;9.074;2023-01-10T03:12:39;24.70;;;4.50;;
21507;SDS011;10915;54.352;9.074;2023-01-10T03:15:07;25.53;;;4.90;;
21507;SDS011;10915;54.352;9.074;2023-01-10T03:17:36;28.93;;;5.37;;
21507;SDS011;10915;54.352;9.074;2023-01-10T03:20:03;25.20;;;4.93;;
21507;SDS011;10915;54.352;9.074;2023-01-10T03:22:30;33.43;;;5.70;;
21507;SDS011;10915;54.352;9.074;2023-01-10T03:25:01;36.17;;;6.23;;
21507;SDS011;10915;54.352;9.074;2023-01-10T03:27:37;24.93;;;4.87;;
21507;SDS011;10915;54.352;9.074;2023-01-10T03:32:53;31.30;;;6.87;;
21507;SDS011;10915;54.352;9.074;2023-01-10T03:35:21;29.63;;;5.40;;
21507;SDS011;10915;54.352;9.074;2023-01-10T03:38:02;37.33;;;5.80;;
21507;SDS011;10915;54.352;9.074;2023-01-10T03:40:40;26.63;;;6.07;;
21507;SDS011;10915;54.352;9.074;2023-01-10T03:46:43;31.33;;;6.17;;
21507;SDS011;10915;54.352;9.074;2023-01-10T03:49:29;23.20;;;5.17;;
21507;SDS011;10915;54.352;9.074;2023-01-10T03:51:58;28.23;;;5.03;;
21507;SDS011;10915;54.352;9.074;2023-01-10T03:54:26;29.60;;;5.83;;
21507;SDS011;10915;54.352;9.074;2023-01-10T03:56:52;31.20;;;5.63;;
21507;SDS011;10915;54.352;9.074;2023-01-10T03:59:18;30.37;;;5.90;;
21507;SDS011;10915;54.352;9.074;2023-01-10T04:01:46;25.00;;;5.63;;
21507;SDS011;10915;54.352;9.074;2023-01-10T04:04:12;24.63;;;6.00;;
21507;SDS011;10915;54.352;9.074;2023-01-10T04:06:37;30.73;;;5.93;;
21507;SDS011;10915;54.352;9.074;2023-01-10T04:09:03;32.13;;;6.33;;
21507;SDS011;10915;54.352;9.074;2023-01-10T04:11:29;25.57;;;5.63;;
21507;SDS011;10915;54.352;9.074;2023-01-10T04:13:54;22.27;;;5.07;;
21507;SDS011;10915;54.352;9.074;2023-01-10T04:16:20;25.50;;;5.17;;
21507;SDS011;10915;54.352;9.074;2023-01-10T04:18:46;32.57;;;5.13;;
21507;SDS011;10915;54.352;9.074;2023-01-10T04:21:11;24.47;;;5.30;;
21507;SDS011;10915;54.352;9.074;2023-01-10T04:23:37;22.40;;;4.83;;
21507;SDS011;10915;54.352;9.074;2023-01-10T04:26:03;25.23;;;5.57;;
21507;SDS011;10915;54.352;9.074;2023-01-10T04:28:28;31.93;;;5.53;;
21507;SDS011;10915;54.352;9.074;2023-01-10T04:30:54;22.77;;;4.87;;
21507;SDS011;10915;54.352;9.074;2023-01-10T04:33:20;19.80;;;5.60;;
21507;SDS011;10915;54.352;9.074;2023-01-10T04:35:46;24.87;;;5.07;;
21507;SDS011;10915;54.352;9.074;2023-01-10T04:38:12;20.47;;;4.67;;
21507;SDS011;10915;54.352;9.074;2023-01-10T04:40:38;23.00;;;4.63;;
21507;SDS011;10915;54.352;9.074;2023-01-10T04:43:04;20.30;;;4.20;;
21507;SDS011;10915;54.352;9.074;2023-01-10T04:45:29;19.90;;;4.63;;
21507;SDS011;10915;54.352;9.074;2023-01-10T04:47:55;32.33;;;6.70;;
21507;SDS011;10915;54.352;9.074;2023-01-10T04:50:21;30.57;;;5.30;;
21507;SDS011;10915;54.352;9.074;2023-01-10T04:52:47;30.73;;;5.93;;
21507;SDS011;10915;54.352;9.074;2023-01-10T04:55:13;25.10;;;4.90;;
21507;SDS011;10915;54.352;9.074;2023-01-10T04:57:39;20.50;;;4.27;;
21507;SDS011;10915;54.352;9.074;2023-01-10T05:00:05;26.70;;;4.90;;
21507;SDS011;10915;54.352;9.074;2023-01-10T05:02:31;22.63;;;4.50;;
21507;SDS011;10915;54.352;9.074;2023-01-10T05:04:57;30.07;;;5.17;;
21507;SDS011;10915;54.352;9.074;2023-01-10T05:07:22;21.43;;;4.37;;
21507;SDS011;10915;54.352;9.074;2023-01-10T05:09:48;34.37;;;6.70;;
21507;SDS011;10915;54.352;9.074;2023-01-10T05:12:13;28.30;;;5.20;;
21507;SDS011;10915;54.352;9.074;2023-01-10T05:14:39;34.43;;;4.87;;
21507;SDS011;10915;54.352;9.074;2023-01-10T05:17:05;26.47;;;5.50;;
21507;SDS011;10915;54.352;9.074;2023-01-10T05:19:30;25.60;;;5.70;;
21507;SDS011;10915;54.352;9.074;2023-01-10T05:21:56;28.43;;;5.67;;
21507;SDS011;10915;54.352;9.074;2023-01-10T05:24:22;27.07;;;6.43;;
21507;SDS011;10915;54.352;9.074;2023-01-10T05:26:47;35.73;;;5.93;;
21507;SDS011;10915;54.352;9.074;2023-01-10T05:29:13;36.27;;;6.17;;
21507;SDS011;10915;54.352;9.074;2023-01-10T05:31:39;36.60;;;7.00;;
21507;SDS011;10915;54.352;9.074;2023-01-10T05:34:05;37.93;;;7.67;;
21507;SDS011;10915;54.352;9.074;2023-01-10T05:36:31;33.23;;;6.90;;
21507;SDS011;10915;54.352;9.074;2023-01-10T05:38:56;41.43;;;7.10;;
21507;SDS011;10915;54.352;9.074;2023-01-10T05:41:22;32.43;;;7.23;;
21507;SDS011;10915;54.352;9.074;2023-01-10T05:43:48;42.53;;;7.13;;
21507;SDS011;10915;54.352;9.074;2023-01-10T05:46:13;44.27;;;7.30;;
21507;SDS011;10915;54.352;9.074;2023-01-10T05:48:39;36.10;;;6.33;;
21507;SDS011;10915;54.352;9.074;2023-01-10T05:51:06;42.03;;;8.17;;
21507;SDS011;10915;54.352;9.074;2023-01-10T05:53:31;35.40;;;8.07;;
21507;SDS011;10915;54.352;9.074;2023-01-10T05:55:58;41.27;;;7.43;;
21507;SDS011;10915;54.352;9.074;2023-01-10T05:58:25;36.37;;;6.83;;
21507;SDS011;10915;54.352;9.074;2023-01-10T06:00:52;42.63;;;8.63;;
21507;SDS011;10915;54.352;9.074;2023-01-10T06:03:19;34.97;;;7.03;;
21507;SDS011;10915;54.352;9.074;2023-01-10T06:05:45;42.20;;;8.47;;
21507;SDS011;10915;54.352;9.074;2023-01-10T06:08:10;33.03;;;7.90;;
21507;SDS011;10915;54.352;9.074;2023-01-10T06:10:36;38.03;;;7.70;;
21507;SDS011;10915;54.352;9.074;2023-01-10T06:13:02;36.57;;;7.33;;
21507;SDS011;10915;54.352;9.074;2023-01-10T06:15:29;36.60;;;8.13;;
21507;SDS011;10915;54.352;9.074;2023-01-10T06:17:55;34.20;;;6.93;;
21507;SDS011;10915;54.352;9.074;2023-01-10T06:20:20;41.30;;;9.47;;
21507;SDS011;10915;54.352;9.074;2023-01-10T06:22:46;34.70;;;8.23;;
21507;SDS011;10915;54.352;9.074;2023-01-10T06:25:12;43.23;;;8.77;;
21507;SDS011;10915;54.352;9.074;2023-01-10T06:27:41;42.23;;;8.47;;
21507;SDS011;10915;54.352;9.074;2023-01-10T06:30:08;33.43;;;7.43;;
21507;SDS011;10915;54.352;9.074;2023-01-10T06:32:35;41.93;;;10.60;;
21507;SDS011;10915;54.352;9.074;2023-01-10T06:35:01;38.97;;;8.30;;
21507;SDS011;10915;54.352;9.074;2023-01-10T06:37:27;42.50;;;7.93;;
21507;SDS011;10915;54.352;9.074;2023-01-10T06:39:52;41.23;;;7.70;;
21507;SDS011;10915;54.352;9.074;2023-01-10T06:42:18;41.43;;;8.33;;
21507;SDS011;10915;54.352;9.074;2023-01-10T06:44:44;36.90;;;7.87;;
21507;SDS011;10915;54.352;9.074;2023-01-10T06:47:09;36.20;;;7.20;;
21507;SDS011;10915;54.352;9.074;2023-01-10T06:49:35;35.13;;;8.53;;
21507;SDS011;10915;54.352;9.074;2023-01-10T06:52:01;37.70;;;7.80;;
21507;SDS011;10915;54.352;9.074;2023-01-10T06:54:26;37.77;;;7.90;;
21507;SDS011;10915;54.352;9.074;2023-01-10T06:56:52;34.47;;;7.80;;
21507;SDS011;10915;54.352;9.074;2023-01-10T06:59:18;30.57;;;7.27;;
21507;SDS011;10915;54.352;9.074;2023-01-10T07:01:43;35.63;;;8.70;;
21507;SDS011;10915;54.352;9.074;2023-01-10T07:04:09;40.87;;;9.10;;
21507;SDS011;10915;54.352;9.074;2023-01-10T07:06:38;32.50;;;7.73;;
21507;SDS011;10915;54.352;9.074;2023-01-10T07:09:06;34.73;;;7.97;;
21507;SDS011;10915;54.352;9.074;2023-01-10T07:11:32;33.90;;;8.63;;
21507;SDS011;10915;54.352;9.074;2023-01-10T07:13:59;33.00;;;7.53;;
21507;SDS011;10915;54.352;9.074;2023-01-10T07:16:25;36.33;;;8.33;;
21507;SDS011;10915;54.352;9.074;2023-01-10T07:18:51;26.67;;;6.83;;
21507;SDS011;10915;54.352;9.074;2023-01-10T07:21:18;24.17;;;6.37;;
21507;SDS011;10915;54.352;9.074;2023-01-10T07:23:52;30.23;;;7.23;;
21507;SDS011;10915;54.352;9.074;2023-01-10T07:26:18;30.30;;;7.00;;
21507;SDS011;10915;54.352;9.074;2023-01-10T07:28:44;33.83;;;7.23;;
21507;SDS011;10915;54.352;9.074;2023-01-10T07:31:15;27.47;;;6.17;;
21507;SDS011;10915;54.352;9.074;2023-01-10T07:33:42;31.83;;;7.23;;
21507;SDS011;10915;54.352;9.074;2023-01-10T07:36:08;26.33;;;7.67;;
21507;SDS011;10915;54.352;9.074;2023-01-10T07:38:34;30.23;;;6.87;;
21507;SDS011;10915;54.352;9.074;2023-01-10T07:41:01;30.17;;;6.70;;
21507;SDS011;10915;54.352;9.074;2023-01-10T07:43:27;26.37;;;6.50;;
21507;SDS011;10915;54.352;9.074;2023-01-10T07:45:53;26.23;;;6.17;;
21507;SDS011;10915;54.352;9.074;2023-01-10T07:48:21;32.53;;;6.73;;
21507;SDS011;10915;54.352;9.074;2023-01-10T07:50:47;23.93;;;5.77;;
21507;SDS011;10915;54.352;9.074;2023-01-10T07:53:13;20.07;;;6.00;;
21507;SDS011;10915;54.352;9.074;2023-01-10T07:55:38;30.77;;;7.00;;
21507;SDS011;10915;54.352;9.074;2023-01-10T07:58:05;28.50;;;7.00;;
21507;SDS011;10915;54.352;9.074;2023-01-10T08:00:34;30.10;;;7.13;;
21507;SDS011;10915;54.352;9.074;2023-01-10T08:03:00;22.43;;;5.53;;
21507;SDS011;10915;54.352;9.074;2023-01-10T08:05:25;22.30;;;5.67;;
21507;SDS011;10915;54.352;9.074;2023-01-10T08:07:51;20.30;;;5.47;;
21507;SDS011;10915;54.352;9.074;2023-01-10T08:10:17;19.33;;;5.30;;
21507;SDS011;10915;54.352;9.074;2023-01-10T08:12:43;29.67;;;5.77;;
21507;SDS011;10915;54.352;9.074;2023-01-10T08:15:09;24.77;;;6.30;;
21507;SDS011;10915;54.352;9.074;2023-01-10T08:17:35;21.93;;;5.93;;
21507;SDS011;10915;54.352;9.074;2023-01-10T08:20:01;26.67;;;6.90;;
21507;SDS011;10915;54.352;9.074;2023-01-10T08:22:27;23.93;;;6.77;;
21507;SDS011;10915;54.352;9.074;2023-01-10T08:24:53;22.13;;;6.20;;
21507;SDS011;10915;54.352;9.074;2023-01-10T08:27:19;24.67;;;6.37;;
21507;SDS011;10915;54.352;9.074;2023-01-10T08:29:45;27.87;;;8.67;;
21507;SDS011;10915;54.352;9.074;2023-01-10T08:32:11;23.13;;;7.03;;
21507;SDS011;10915;54.352;9.074;2023-01-10T08:34:36;22.87;;;8.83;;
21507;SDS011;10915;54.352;9.074;2023-01-10T08:37:02;28.57;;;8.33;;
21507;SDS011;10915;54.352;9.074;2023-01-10T08:39:28;28.73;;;8.57;;
21507;SDS011;10915;54.352;9.074;2023-01-10T08:41:59;30.87;;;11.50;;
21507;SDS011;10915;54.352;9.074;2023-01-10T08:44:24;22.17;;;9.53;;
21507;SDS011;10915;54.352;9.074;2023-01-10T08:46:50;26.77;;;8.33;;
21507;SDS011;10915;54.352;9.074;2023-01-10T08:49:16;24.33;;;7.20;;
21507;SDS011;10915;54.352;9.074;2023-01-10T08:51:42;25.40;;;7.90;;
21507;SDS011;10915;54.352;9.074;2023-01-10T08:54:08;23.40;;;8.13;;
21507;SDS011;10915;54.352;9.074;2023-01-10T08:56:34;24.30;;;8.40;;
21507;SDS011;10915;54.352;9.074;2023-01-10T08:59:01;23.67;;;7.33;;
21507;SDS011;10915;54.352;9.074;2023-01-10T09:01:27;23.67;;;7.80;;
21507;SDS011;10915;54.352;9.074;2023-01-10T09:03:52;24.07;;;8.03;;
21507;SDS011;10915;54.352;9.074;2023-01-10T09:06:18;24.67;;;7.73;;
21507;SDS011;10915;54.352;9.074;2023-01-10T09:08:44;21.43;;;7.13;;
21507;SDS011;10915;54.352;9.074;2023-01-10T09:11:09;20.93;;;7.57;;
21507;SDS011;10915;54.352;9.074;2023-01-10T09:13:35;25.87;;;7.80;;
21507;SDS011;10915;54.352;9.074;2023-01-10T09:16:03;31.37;;;8.40;;
21507;SDS011;10915;54.352;9.074;2023-01-10T09:18:29;23.93;;;7.63;;
21507;SDS011;10915;54.352;9.074;2023-01-10T09:20:55;30.70;;;9.80;;
21507;SDS011;10915;54.352;9.074;2023-01-10T09:23:21;24.70;;;8.13;;
21507;SDS011;10915;54.352;9.074;2023-01-10T09:25:58;27.20;;;8.57;;
21507;SDS011;10915;54.352;9.074;2023-01-10T09:28:27;24.00;;;7.87;;
21507;SDS011;10915;54.352;9.074;2023-01-10T09:30:59;23.70;;;8.20;;
21507;SDS011;10915;54.352;9.074;2023-01-10T09:33:36;24.73;;;8.73;;
21507;SDS011;10915;54.352;9.074;2023-01-10T09:36:18;27.43;;;9.37;;
21507;SDS011;10915;54.352;9.074;2023-01-10T09:38:44;27.63;;;9.30;;
21507;SDS011;10915;54.352;9.074;2023-01-10T09:41:26;28.90;;;9.20;;
21507;SDS011;10915;54.352;9.074;2023-01-10T09:55:37;27.77;;;8.83;;
21507;SDS011;10915;54.352;9.074;2023-01-10T09:58:06;27.90;;;9.13;;
21507;SDS011;10915;54.352;9.074;2023-01-10T10:00:38;23.53;;;7.73;;
21507;SDS011;10915;54.352;9.074;2023-01-10T10:06:58;28.43;;;9.30;;
21507;SDS011;10915;54.352;9.074;2023-01-10T10:13:04;23.47;;;7.90;;
21507;SDS011;10915;54.352;9.074;2023-01-10T10:32:29;22.70;;;8.30;;
21507;SDS011;10915;54.352;9.074;2023-01-10T10:35:23;27.60;;;7.53;;
21507;SDS011;10915;54.352;9.074;2023-01-10T10:38:25;22.03;;;6.90;;
21507;SDS011;10915;54.352;9.074;2023-01-10T10:41:28;27.07;;;8.03;;
21507;SDS011;10915;54.352;9.074;2023-01-10T10:44:00;21.90;;;7.60;;
21507;SDS011;10915;54.352;9.074;2023-01-10T10:46:42;27.23;;;8.67;;
21507;SDS011;10915;54.352;9.074;2023-01-10T10:52:26;18.67;;;6.50;;
21507;SDS011;10915;54.352;9.074;2023-01-10T10:54:56;25.00;;;7.80;;
21507;SDS011;10915;54.352;9.074;2023-01-10T10:57:26;22.13;;;8.07;;
21507;SDS011;10915;54.352;9.074;2023-01-10T10:59:53;28.10;;;8.07;;
21507;SDS011;10915;54.352;9.074;2023-01-10T11:02:22;27.43;;;7.77;;
21507;SDS011;10915;54.352;9.074;2023-01-10T11:04:49;31.17;;;7.97;;
21507;SDS011;10915;54.352;9.074;2023-01-10T11:07:19;17.63;;;7.23;;
21507;SDS011;10915;54.352;9.074;2023-01-10T11:09:46;24.67;;;7.90;;
21507;SDS011;10915;54.352;9.074;2023-01-10T11:12:13;28.43;;;7.80;;
21507;SDS011;10915;54.352;9.074;2023-01-10T11:14:44;23.40;;;7.23;;
21507;SDS011;10915;54.352;9.074;2023-01-10T11:17:19;27.50;;;7.80;;
21507;SDS011;10915;54.352;9.074;2023-01-10T11:22:24;24.43;;;7.23;;
21507;SDS011;10915;54.352;9.074;2023-01-10T11:24:53;26.50;;;8.00;;
21507;SDS011;10915;54.352;9.074;2023-01-10T11:27:31;28.63;;;7.20;;
21507;SDS011;10915;54.352;9.074;2023-01-10T11:30:02;24.43;;;6.73;;
21507;SDS011;10915;54.352;9.074;2023-01-10T11:35:08;27.53;;;6.70;;
21507;SDS011;10915;54.352;9.074;2023-01-10T11:37:58;23.20;;;7.27;;
21507;SDS011;10915;54.352;9.074;2023-01-10T11:40:30;28.80;;;7.23;;
21507;SDS011;10915;54.352;9.074;2023-01-10T11:42:57;22.60;;;6.57;;
21507;SDS011;10915;54.352;9.074;2023-01-10T11:45:33;25.43;;;7.00;;
21507;SDS011;10915;54.352;9.074;2023-01-10T11:48:08;25.73;;;7.50;;
21507;SDS011;10915;54.352;9.074;2023-01-10T11:50:42;25.43;;;5.90;;
21507;SDS011;10915;54.352;9.074;2023-01-10T11:53:30;30.73;;;6.50;;
21507;SDS011;10915;54.352;9.074;2023-01-10T11:56:10;27.63;;;7.30;;
21507;SDS011;10915;54.352;9.074;2023-01-10T11:58:46;20.93;;;6.30;;
21507;SDS011;10915;54.352;9.074;2023-01-10T12:01:23;30.07;;;7.30;;
21507;SDS011;10915;54.352;9.074;2023-01-10T12:03:52;23.13;;;6.70;;
21507;SDS011;10915;54.352;9.074;2023-01-10T12:06:18;24.77;;;8.03;;
21507;SDS011;10915;54.352;9.074;2023-01-10T12:08:44;30.07;;;7.97;;
21507;SDS011;10915;54.352;9.074;2023-01-10T12:13:49;28.00;;;8.20;;
21507;SDS011;10915;54.352;9.074;2023-01-10T12:16:17;28.10;;;9.00;;
21507;SDS011;10915;54.352;9.074;2023-01-10T12:18:50;28.27;;;9.40;;
21507;SDS011;10915;54.352;9.074;2023-01-10T12:21:41;28.67;;;10.00;;
21507;SDS011;10915;54.352;9.074;2023-01-10T12:24:20;32.27;;;8.73;;
21507;SDS011;10915;54.352;9.074;2023-01-10T12:26:47;32.50;;;9.67;;
21507;SDS011;10915;54.352;9.074;2023-01-10T12:29:20;32.90;;;10.80;;
21507;SDS011;10915;54.352;9.074;2023-01-10T12:31:52;28.47;;;9.97;;
21507;SDS011;10915;54.352;9.074;2023-01-10T12:34:38;30.27;;;9.87;;
21507;SDS011;10915;54.352;9.074;2023-01-10T12:37:11;32.70;;;10.60;;
21507;SDS011;10915;54.352;9.074;2023-01-10T12:39:47;39.07;;;10.63;;
21507;SDS011;10915;54.352;9.074;2023-01-10T12:45:33;32.63;;;10.07;;
21507;SDS011;10915;54.352;9.074;2023-01-10T12:48:16;31.07;;;10.03;;
21507;SDS011;10915;54.352;9.074;2023-01-10T12:50:56;36.33;;;10.57;;
21507;SDS011;10915;54.352;9.074;2023-01-10T12:56:04;28.03;;;9.10;;
21507;SDS011;10915;54.352;9.074;2023-01-10T12:58:47;31.43;;;9.70;;
21507;SDS011;10915;54.352;9.074;2023-01-10T13:01:19;29.97;;;10.50;;
21507;SDS011;10915;54.352;9.074;2023-01-10T13:03:55;37.37;;;9.27;;
21507;SDS011;10915;54.352;9.074;2023-01-10T13:06:29;30.57;;;9.10;;
21507;SDS011;10915;54.352;9.074;2023-01-10T13:08:58;27.73;;;8.07;;
21507;SDS011;10915;54.352;9.074;2023-01-10T13:14:05;27.53;;;8.63;;
21507;SDS011;10915;54.352;9.074;2023-01-10T13:16:41;27.50;;;7.80;;
21507;SDS011;10915;54.352;9.074;2023-01-10T13:21:43;25.63;;;7.27;;
21507;SDS011;10915;54.352;9.074;2023-01-10T13:24:23;28.87;;;7.53;;
21507;SDS011;10915;54.352;9.074;2023-01-10T13:26:59;25.13;;;7.73;;
21507;SDS011;10915;54.352;9.074;2023-01-10T13:29:28;27.77;;;7.73;;
21507;SDS011;10915;54.352;9.074;2023-01-10T13:31:59;27.13;;;6.97;;
21507;SDS011;10915;54.352;9.074;2023-01-10T13:34:32;29.30;;;6.87;;
21507;SDS011;10915;54.352;9.074;2023-01-10T13:37:01;24.97;;;6.37;;
21507;SDS011;10915;54.352;9.074;2023-01-10T13:39:44;19.03;;;5.80;;
21507;SDS011;10915;54.352;9.074;2023-01-10T13:45:20;22.27;;;6.47;;
21507;SDS011;10915;54.352;9.074;2023-01-10T14:09:27;26.13;;;6.97;;
21507;SDS011;10915;54.352;9.074;2023-01-10T14:12:07;23.20;;;6.93;;
21507;SDS011;10915;54.352;9.074;2023-01-10T14:15:19;27.73;;;6.53;;
21507;SDS011;10915;54.352;9.074;2023-01-10T14:18:04;29.80;;;6.23;;
21507;SDS011;10915;54.352;9.074;2023-01-10T14:20:40;22.97;;;5.63;;
21507;SDS011;10915;54.352;9.074;2023-01-10T14:25:44;23.30;;;5.57;;
21507;SDS011;10915;54.352;9.074;2023-01-10T14:28:26;23.57;;;5.60;;
21507;SDS011;10915;54.352;9.074;2023-01-10T14:31:01;26.10;;;6.93;;
21507;SDS011;10915;54.352;9.074;2023-01-10T14:33:45;19.23;;;5.87;;
21507;SDS011;10915;54.352;9.074;2023-01-10T14:36:19;25.20;;;6.30;;
21507;SDS011;10915;54.352;9.074;2023-01-10T14:38:56;19.97;;;6.33;;
21507;SDS011;10915;54.352;9.074;2023-01-10T14:41:37;27.47;;;6.60;;
21507;SDS011;10915;54.352;9.074;2023-01-10T14:44:15;24.63;;;6.23;;
21507;SDS011;10915;54.352;9.074;2023-01-10T14:46:52;21.93;;;5.53;;
21507;SDS011;10915;54.352;9.074;2023-01-10T14:51:46;22.20;;;6.30;;
21507;SDS011;10915;54.352;9.074;2023-01-10T14:54:15;23.57;;;6.90;;
21507;SDS011;10915;54.352;9.074;2023-01-10T14:56:43;25.77;;;6.13;;
21507;SDS011;10915;54.352;9.074;2023-01-10T14:59:31;29.30;;;7.10;;
21507;SDS011;10915;54.352;9.074;2023-01-10T15:02:12;25.47;;;6.60;;
21507;SDS011;10915;54.352;9.074;2023-01-10T15:04:50;25.63;;;6.77;;
21507;SDS011;10915;54.352;9.074;2023-01-10T15:07:24;23.03;;;7.70;;
21507;SDS011;10915;54.352;9.074;2023-01-10T15:09:52;22.13;;;7.97;;
21507;SDS011;10915;54.352;9.074;2023-01-10T15:12:21;23.47;;;6.83;;
21507;SDS011;10915;54.352;9.074;2023-01-10T15:14:49;26.67;;;8.57;;
21507;SDS011;10915;54.352;9.074;2023-01-10T15:17:24;28.93;;;8.53;;
21507;SDS011;10915;54.352;9.074;2023-01-10T15:19:51;20.90;;;8.07;;
21507;SDS011;10915;54.352;9.074;2023-01-10T15:22:31;26.37;;;7.40;;
21507;SDS011;10915;54.352;9.074;2023-01-10T15:25:06;25.50;;;8.50;;
21507;SDS011;10915;54.352;9.074;2023-01-10T15:27:44;24.50;;;7.97;;
21507;SDS011;10915;54.352;9.074;2023-01-10T15:30:28;27.27;;;7.63;;
21507;SDS011;10915;54.352;9.074;2023-01-10T15:33:00;23.77;;;8.00;;
21507;SDS011;10915;54.352;9.074;2023-01-10T15:35:29;25.07;;;8.60;;
21507;SDS011;10915;54.352;9.074;2023-01-10T15:38:06;30.00;;;8.37;;
21507;SDS011;10915;54.352;9.074;2023-01-10T15:40:36;21.17;;;7.53;;
21507;SDS011;10915;54.352;9.074;2023-01-10T15:45:42;24.57;;;8.07;;
21507;SDS011;10915;54.352;9.074;2023-01-10T15:50:53;27.30;;;8.80;;
21507;SDS011;10915;54.352;9.074;2023-01-10T15:56:31;22.13;;;8.33;;
21507;SDS011;10915;54.352;9.074;2023-01-10T15:59:04;26.87;;;8.53;;
21507;SDS011;10915;54.352;9.074;2023-01-10T16:01:51;26.37;;;8.33;;
21507;SDS011;10915;54.352;9.074;2023-01-10T16:04:24;27.77;;;8.80;;
21507;SDS011;10915;54.352;9.074;2023-01-10T16:06:51;24.73;;;8.60;;
21507;SDS011;10915;54.352;9.074;2023-01-10T16:09:29;25.23;;;9.67;;
21507;SDS011;10915;54.352;9.074;2023-01-10T16:11:55;26.90;;;9.67;;
21507;SDS011;10915;54.352;9.074;2023-01-10T16:14:39;28.03;;;10.53;;
21507;SDS011;10915;54.352;9.074;2023-01-10T16:17:05;30.23;;;10.70;;
21507;SDS011;10915;54.352;9.074;2023-01-10T16:19:31;22.77;;;9.77;;
21507;SDS011;10915;54.352;9.074;2023-01-10T16:21:57;25.67;;;10.30;;
21507;SDS011;10915;54.352;9.074;2023-01-10T16:24:28;26.60;;;10.07;;
21507;SDS011;10915;54.352;9.074;2023-01-10T16:26:55;25.30;;;10.10;;
21507;SDS011;10915;54.352;9.074;2023-01-10T16:29:24;30.83;;;11.57;;
21507;SDS011;10915;54.352;9.074;2023-01-10T16:31:50;30.60;;;11.47;;
21507;SDS011;10915;54.352;9.074;2023-01-10T16:34:17;31.33;;;13.27;;
21507;SDS011;10915;54.352;9.074;2023-01-10T16:36:43;25.13;;;11.80;;
21507;SDS011;10915;54.352;9.074;2023-01-10T16:39:16;25.50;;;11.70;;
21507;SDS011;10915;54.352;9.074;2023-01-10T16:41:46;31.53;;;13.00;;
21507;SDS011;10915;54.352;9.074;2023-01-10T16:44:31;32.83;;;13.10;;
21507;SDS011;10915;54.352;9.074;2023-01-10T16:46:57;29.63;;;12.40;;
21507;SDS011;10915;54.352;9.074;2023-01-10T16:49:23;33.57;;;12.30;;
21507;SDS011;10915;54.352;9.074;2023-01-10T16:51:50;28.23;;;13.03;;
21507;SDS011;10915;54.352;9.074;2023-01-10T16:54:17;32.80;;;12.43;;
21507;SDS011;10915;54.352;9.074;2023-01-10T16:56:44;28.83;;;12.20;;
21507;SDS011;10915;54.352;9.074;2023-01-10T16:59:11;33.33;;;12.73;;
21507;SDS011;10915;54.352;9.074;2023-01-10T17:01:39;34.13;;;12.13;;
21507;SDS011;10915;54.352;9.074;2023-01-10T17:04:11;30.57;;;13.70;;
21507;SDS011;10915;54.352;9.074;2023-01-10T17:06:43;30.57;;;12.37;;
21507;SDS011;10915;54.352;9.074;2023-01-10T17:09:22;28.60;;;11.37;;
21507;SDS011;10915;54.352;9.074;2023-01-10T17:11:53;26.07;;;13.00;;